War, West Virginia
Current Conditions -  °F | °C
As of 1:55 AM on Thursday 27 Nov 2014 (Local Time) from KJFZ Reporting Station
Overcast Overcast  
Wind Chill: 34°   Ceiling: 7500
Heat Index: 38°   Visibility: 10mi
Dew Point: 32°   Wind: 5mph
Humidity: 80%   Direction: 240°WSW
Pressure: 29.94"   Gusts: NA
Location:  37.3°N, 81.69°W
Report Text: KJFZ 270655Z AUTO 24004KT 10SM SCT042 SCT048 OVC075 03/00 A2994 RMK AO2 T00310000
Loading
Personal Weather Stations






























Interactive Weather Map New forecast layout! Learn more

10-Day Weather Forecast

Advertisements
Track Severe Weather on mobile